Tuesday, April 24, 2018, 4:28 AM EDT
Back to Local

KHVN, Tweed-new Haven Airport

Location: East Haven, CT, United States Lat: 41.267
Local Time: 4:28 AM EDT ( 8:28 GMT) Lon: -72.883
Time Zone: US/Eastern Elev: 13 ft

Show me the last for .
Show Coded

Time T Td Feel RH Dir Speed Gust Alt SLP Vis Weather Sky Remarks
2018-04-24 03:53 37 34 - 88 - Calm - 30.42 30.42 10 CLR None
2018-04-24 02:53 37 33 - 85 - Calm - 30.43 30.42 10 CLR None
2018-04-24 01:53 38 35 - 89 - Calm - 30.43 30.42 10 CLR 6-hr Min Temp (2am): 37.9°F
6-hr Max Temp (2am): 50.0°F
2018-04-24 00:53 39 35 - 85 - Calm - 30.44 30.44 10 CLR 24-hr Min Temp (1am): 33.1°F
24-hr Max Temp (1am): 61.0°F
2018-04-23 23:53 41 36 - 82 - Calm - 30.45 30.45 10 CLR None
2018-04-23 22:53 44 37 43 76 150° 3 - 30.45 30.45 10 CLR None
2018-04-23 21:53 45 37 44 73 180° 3 - 30.46 30.45 10 CLR None
2018-04-23 20:53 47 38 46 70 180° 3 - 30.46 30.45 10 CLR None
2018-04-23 19:53 49 35 46 58 160° 7 - 30.43 30.43 10 CLR 6-hr Min Temp (8pm): 48.9°F
6-hr Max Temp (8pm): 61.0°F
2018-04-23 18:53 54 30 - 39 170° 9 - 30.43 30.43 10 CLR None
2018-04-23 17:53 57 31 - 36 170° 10 - 30.44 30.44 10 CLR None
2018-04-23 16:53 59 26 - 28 150° 14 - 30.44 30.44 10 CLR None
2018-04-23 15:53 60 27 - 28 140° 10 - 30.45 30.45 10 CLR None
2018-04-23 14:53 59 27 - 29 150° 13 - 30.46 30.45 10 CLR None
2018-04-23 13:53 61 23 - 23 170° 15 - 30.47 30.46 10 CLR 6-hr Min Temp (2pm): 48.0°F
6-hr Max Temp (2pm): 61.0°F
2018-04-23 12:53 58 27 - 30 170° 9 - 30.48 30.48 10 CLR None
2018-04-23 11:53 55 26 - 32 150° 13 - 30.50 30.50 10 CLR None
2018-04-23 10:53 56 26 - 31 140° 10 - 30.50 30.50 10 CLR None
2018-04-23 09:53 58 23 - 25 130° 9 - 30.49 30.48 10 CLR None
2018-04-23 08:53 53 24 - 32 40° 5 - 30.49 30.49 10 CLR None
2018-04-23 07:53 48 27 44 43 10° 8 - 30.49 30.48 10 CLR 6-hr Min Temp (8am): 33.1°F
6-hr Max Temp (8am): 48.0°F
2018-04-23 06:53 40 28 38 62 50° 3 - 30.47 30.47 10 CLR None
2018-04-23 05:53 35 28 - 75 - Calm - 30.46 30.45 10 CLR None
2018-04-23 04:53 35 29 - 78 - Calm - 30.43 30.43 10 CLR None

Support USWX by starting your Amazon purchase here.